createdAt,value
2023-08-07T00:02:01.594Z,98178.97
2023-08-07T00:04:28.996Z,98179.41
2023-08-07T00:06:55.650Z,98184.88
2023-08-07T00:09:22.350Z,98182.59
2023-08-07T00:11:49.336Z,98183.47
2023-08-07T00:14:16.046Z,98184.69
2023-08-07T00:16:42.902Z,98186.97
2023-08-07T00:19:09.529Z,98179.53
2023-08-07T00:21:36.985Z,98188.63
2023-08-07T00:24:04.010Z,98183.38
2023-08-07T00:26:33.222Z,98186.97
2023-08-07T00:29:00.036Z,98183.25
2023-08-07T00:31:26.980Z,98177.56
2023-08-07T00:33:55.501Z,98185.44
2023-08-07T00:36:23.430Z,98185.13
2023-08-07T00:38:51.287Z,98182.94
2023-08-07T00:41:19.473Z,98178.00
2023-08-07T00:43:46.138Z,98183.91
2023-08-07T00:46:13.115Z,98188.28
2023-08-07T00:48:40.353Z,98184.44
2023-08-07T00:51:09.069Z,98183.78
2023-08-07T00:53:40.516Z,98181.59
2023-08-07T00:56:08.444Z,98186.41
2023-08-07T00:58:35.859Z,98183.78
2023-08-07T01:01:03.767Z,98182.16
2023-08-07T01:03:30.533Z,98186.63
2023-08-07T01:05:57.482Z,98176.34
2023-08-07T01:08:25.582Z,98181.50
2023-08-07T01:11:04.382Z,98175.25
2023-08-07T01:13:38.713Z,98176.41
2023-08-07T01:16:12.050Z,98173.66
2023-08-07T01:18:40.036Z,98175.06
2023-08-07T01:21:06.703Z,98173.06
2023-08-07T01:23:33.751Z,98168.59
2023-08-07T01:26:00.437Z,98174.63
2023-08-07T01:28:33.897Z,98165.25
2023-08-07T01:31:05.170Z,98165.59
2023-08-07T01:34:06.072Z,98170.66
2023-08-07T01:36:33.373Z,98174.81
2023-08-07T01:39:02.630Z,98181.59
2023-08-07T01:41:31.148Z,98176.53
2023-08-07T01:43:58.691Z,98176.09
2023-08-07T01:46:25.330Z,98175.44
2023-08-07T01:48:53.893Z,98177.75
2023-08-07T01:51:20.620Z,98181.72
2023-08-07T01:53:48.790Z,98196.81
2023-08-07T01:56:15.453Z,98190.94
2023-08-07T01:58:42.139Z,98192.78
2023-08-07T02:01:08.869Z,98194.66
2023-08-07T02:03:35.682Z,98189.06
2023-08-07T02:06:03.148Z,98197.84
2023-08-07T02:08:29.816Z,98203.09
2023-08-07T02:10:56.447Z,98200.56
2023-08-07T02:13:23.231Z,98204.75
2023-08-07T02:15:49.973Z,98201.56
2023-08-07T02:18:16.640Z,98194.25
2023-08-07T02:20:43.326Z,98197.78
2023-08-07T02:23:09.970Z,98183.13
2023-08-07T02:25:36.668Z,98195.50
2023-08-07T02:28:03.234Z,98201.38
2023-08-07T02:30:31.463Z,98203.38
2023-08-07T02:32:58.184Z,98199.66
2023-08-07T02:35:24.953Z,98200.09
2023-08-07T02:37:51.694Z,98195.78
2023-08-07T02:40:19.960Z,98196.25
2023-08-07T02:42:46.598Z,98196.88
2023-08-07T02:45:13.272Z,98196.56
2023-08-07T02:47:39.953Z,98203.56
2023-08-07T02:50:07.115Z,98201.38
2023-08-07T02:52:33.862Z,98203.56
2023-08-07T02:55:00.621Z,98202.78
2023-08-07T02:57:27.435Z,98199.06
2023-08-07T02:59:54.050Z,98196.13
2023-08-07T03:02:20.900Z,98212.84
2023-08-07T03:04:47.612Z,98206.38
2023-08-07T03:07:14.272Z,98232.09
2023-08-07T03:09:41.054Z,98231.44
2023-08-07T03:12:08.099Z,98234.47
2023-08-07T03:14:35.754Z,98241.78
2023-08-07T03:17:02.484Z,98255.78
2023-08-07T03:19:29.202Z,98257.34
2023-08-07T03:21:55.912Z,98263.03
2023-08-07T03:24:22.650Z,98261.56
2023-08-07T03:26:50.326Z,98261.72
2023-08-07T03:29:17.124Z,98269.50
2023-08-07T03:31:44.595Z,98273.09
2023-08-07T03:34:12.029Z,98276.47
2023-08-07T03:36:38.728Z,98274.19
2023-08-07T03:39:05.862Z,98276.47
2023-08-07T03:41:32.710Z,98280.69
2023-08-07T03:44:00.192Z,98285.94
2023-08-07T03:46:26.915Z,98288.13
2023-08-07T03:48:53.609Z,98289.19
2023-08-07T03:51:21.145Z,98292.28
2023-08-07T03:53:51.496Z,98295.22
2023-08-07T03:56:18.187Z,98294.06
2023-08-07T03:58:45.374Z,98297.59
2023-08-07T04:01:13.622Z,98299.59
2023-08-07T04:03:41.389Z,98304.53
2023-08-07T04:06:08.188Z,98302.78
2023-08-07T04:08:34.986Z,98306.97
2023-08-07T04:11:03.539Z,98303.25
2023-08-07T04:13:30.398Z,98302.47
2023-08-07T04:15:57.214Z,98306.00
2023-08-07T04:18:24.088Z,98310.75
2023-08-07T04:20:57.011Z,98313.50
2023-08-07T04:23:24.288Z,98312.72
2023-08-07T04:25:52.151Z,98307.81
2023-08-07T04:28:19.235Z,98312.53
2023-08-07T04:30:46.607Z,98314.97
2023-08-07T04:33:13.897Z,98322.97
2023-08-07T04:35:41.053Z,98317.22
2023-08-07T04:38:07.768Z,98332.03
2023-08-07T04:40:34.669Z,98334.22
2023-08-07T04:43:01.909Z,98336.97
2023-08-07T04:45:28.753Z,98337.88
2023-08-07T04:47:55.447Z,98336.78
2023-08-07T04:50:22.093Z,98337.22
2023-08-07T04:52:48.792Z,98340.75
2023-08-07T04:55:15.523Z,98338.13
2023-08-07T04:57:42.309Z,98345.75
2023-08-07T05:00:09.606Z,98339.84
2023-08-07T05:02:36.467Z,98338.56
2023-08-07T05:05:03.295Z,98344.06
2023-08-07T05:07:29.890Z,98352.91
2023-08-07T05:09:56.568Z,98349.28
2023-08-07T05:12:23.954Z,98351.75
2023-08-07T05:14:50.689Z,98350.69
2023-08-07T05:17:17.361Z,98344.78
2023-08-07T05:19:43.968Z,98342.47
2023-08-07T05:22:10.688Z,98351.69
2023-08-07T05:24:40.502Z,98361.56
2023-08-07T05:27:09.522Z,98360.72
2023-08-07T05:29:44.295Z,98364.25
2023-08-07T05:32:15.792Z,98360.72
2023-08-07T05:34:42.923Z,98365.22
2023-08-07T05:37:09.854Z,98377.72
2023-08-07T05:39:37.160Z,98371.19
2023-08-07T05:42:04.543Z,98375.94
2023-08-07T05:44:31.256Z,98379.66
2023-08-07T05:46:58.023Z,98374.53
2023-08-07T05:49:26.304Z,98378.38
2023-08-07T05:51:54.413Z,98389.50
2023-08-07T05:54:22.848Z,98391.75
2023-08-07T05:56:50.460Z,98396.03
2023-08-07T05:59:17.201Z,98392.88
2023-08-07T06:01:43.864Z,98390.38
2023-08-07T06:04:10.747Z,98393.34
2023-08-07T06:06:40.300Z,98391.91
2023-08-07T06:09:08.217Z,98396.66
2023-08-07T06:11:35.450Z,98404.53
2023-08-07T06:14:02.635Z,98409.47
2023-08-07T06:16:29.460Z,98407.16
2023-08-07T06:18:56.643Z,98418.13
2023-08-07T06:21:23.304Z,98427.66
2023-08-07T06:23:50.064Z,98431.50
2023-08-07T06:26:16.742Z,98432.19
2023-08-07T06:28:43.935Z,98429.56
2023-08-07T06:31:12.234Z,98436.16
2023-08-07T06:33:39.104Z,98435.41
2023-08-07T06:36:07.399Z,98436.16
2023-08-07T06:38:34.050Z,98443.28
2023-08-07T06:41:01.833Z,98442.41
2023-08-07T06:43:28.817Z,98446.25
2023-08-07T06:45:56.924Z,98445.28
2023-08-07T06:48:24.386Z,98448.66
2023-08-07T06:50:52.186Z,98453.59
2023-08-07T06:53:19.040Z,98458.22
2023-08-07T06:55:46.279Z,98461.09
2023-08-07T06:58:12.968Z,98456.66
2023-08-07T07:00:39.666Z,98468.22
2023-08-07T07:03:07.159Z,98469.34
2023-08-07T07:05:34.013Z,98475.94
2023-08-07T07:08:00.995Z,98467.03
2023-08-07T07:10:27.773Z,98467.91
2023-08-07T07:12:54.584Z,98464.31
2023-08-07T07:15:21.225Z,98467.25
2023-08-07T07:17:49.308Z,98475.72
2023-08-07T07:20:16.046Z,98471.84
2023-08-07T07:22:42.794Z,98476.78
2023-08-07T07:25:09.997Z,98469.00
2023-08-07T07:27:36.881Z,98471.00
2023-08-07T07:30:03.722Z,98480.97
2023-08-07T07:32:30.490Z,98472.63
2023-08-07T07:34:57.176Z,98472.97
2023-08-07T07:37:23.869Z,98483.94
2023-08-07T07:39:50.627Z,98482.72
2023-08-07T07:42:17.330Z,98494.44
2023-08-07T07:44:43.950Z,98493.16
2023-08-07T07:47:13.599Z,98505.13
2023-08-07T07:49:45.431Z,98500.28
2023-08-07T07:52:12.182Z,98507.66
2023-08-07T07:54:38.846Z,98511.06
2023-08-07T07:57:05.982Z,98511.59
2023-08-07T07:59:32.694Z,98508.41
2023-08-07T08:01:59.727Z,98521.03
2023-08-07T08:04:26.668Z,98530.16
2023-08-07T08:06:53.517Z,98527.19
2023-08-07T08:09:20.662Z,98528.44
2023-08-07T08:11:47.346Z,98527.22
2023-08-07T08:14:14.022Z,98530.63
2023-08-07T08:16:40.674Z,98529.06
2023-08-07T08:19:09.299Z,98530.06
2023-08-07T08:21:36.039Z,98530.59
2023-08-07T08:24:02.881Z,98537.41
2023-08-07T08:26:29.653Z,98544.91
2023-08-07T08:28:56.468Z,98537.31
2023-08-07T08:31:25.102Z,98546.19
2023-08-07T08:33:51.882Z,98541.00
2023-08-07T08:36:18.576Z,98542.78
2023-08-07T08:38:47.809Z,98545.84
2023-08-07T08:41:14.618Z,98542.84
2023-08-07T08:43:44.268Z,98559.78
2023-08-07T08:46:13.123Z,98560.25
2023-08-07T08:48:41.610Z,98553.09
2023-08-07T08:51:10.095Z,98559.44
2023-08-07T08:53:37.137Z,98554.75
2023-08-07T08:56:05.168Z,98567.03
2023-08-07T08:58:32.385Z,98558.56
2023-08-07T09:00:59.648Z,98561.97
2023-08-07T09:03:27.402Z,98567.66
2023-08-07T09:05:58.865Z,98569.25
2023-08-07T09:08:28.282Z,98563.09
2023-08-07T09:10:55.198Z,98573.91
2023-08-07T09:13:25.612Z,98577.53
2023-08-07T09:15:53.691Z,98575.09
2023-08-07T09:18:23.714Z,98567.94
2023-08-07T09:20:50.664Z,98577.97
2023-08-07T09:23:20.168Z,98572.38
2023-08-07T09:25:47.019Z,98569.16
2023-08-07T09:28:14.233Z,98572.66
2023-08-07T09:30:45.281Z,98571.63
2023-08-07T09:33:12.191Z,98582.78
2023-08-07T09:35:40.256Z,98576.59
2023-08-07T09:38:08.539Z,98579.72
2023-08-07T09:40:35.159Z,98574.66
2023-08-07T09:43:03.412Z,98566.69
2023-08-07T09:45:31.355Z,98571.78
2023-08-07T09:47:59.920Z,98560.09
2023-08-07T09:50:28.138Z,98580.28
2023-08-07T09:52:56.761Z,98563.09
2023-08-07T09:55:23.879Z,98575.28
2023-08-07T09:57:51.299Z,98574.91
2023-08-07T10:00:21.132Z,98580.19
2023-08-07T10:02:51.993Z,98565.00
2023-08-07T10:05:19.185Z,98580.78
2023-08-07T10:07:47.931Z,98581.56
2023-08-07T10:10:17.355Z,98577.19
2023-08-07T10:12:47.207Z,98576.81
2023-08-07T10:15:15.121Z,98579.22
2023-08-07T10:17:42.555Z,98577.53
2023-08-07T10:20:10.142Z,98586.91
2023-08-07T10:22:39.676Z,98589.97
2023-08-07T10:25:07.628Z,98599.63
2023-08-07T10:27:37.804Z,98582.63
2023-08-07T10:30:14.620Z,98586.22
2023-08-07T10:32:45.515Z,98599.03
2023-08-07T10:35:24.424Z,98591.84
2023-08-07T10:37:53.310Z,98596.72
2023-08-07T10:40:22.572Z,98601.09
2023-08-07T10:42:56.108Z,98596.72
2023-08-07T10:45:24.164Z,98592.44
2023-08-07T10:48:03.908Z,98590.34
2023-08-07T10:50:32.617Z,98590.38
2023-08-07T10:53:05.529Z,98597.97
2023-08-07T10:55:44.496Z,98599.44
2023-08-07T10:58:24.296Z,98607.97
2023-08-07T11:01:23.754Z,98603.31
2023-08-07T11:04:01.305Z,98615.66
2023-08-07T11:06:34.413Z,98617.44
2023-08-07T11:09:02.162Z,98608.75
2023-08-07T11:11:28.890Z,98611.69
2023-08-07T11:13:55.541Z,98604.25
2023-08-07T11:16:22.958Z,98599.72
2023-08-07T11:18:53.156Z,98602.56
2023-08-07T11:21:20.040Z,98605.19
2023-08-07T11:23:47.882Z,98598.34
2023-08-07T11:26:14.544Z,98592.19
2023-08-07T11:28:41.252Z,98610.53
2023-08-07T11:31:08.195Z,98610.94
2023-08-07T11:33:36.933Z,98609.66
2023-08-07T11:36:04.351Z,98619.56
2023-08-07T11:38:32.575Z,98621.00
2023-08-07T11:41:01.416Z,98621.47
2023-08-07T11:43:32.002Z,98628.72
2023-08-07T11:46:00.499Z,98632.44
2023-08-07T11:48:31.780Z,98648.78
2023-08-07T11:50:59.440Z,98651.09
2023-08-07T11:53:28.589Z,98650.16
2023-08-07T11:56:05.229Z,98651.75
2023-08-07T11:58:41.828Z,98650.66
2023-08-07T12:01:14.000Z,98647.25
2023-08-07T12:03:44.405Z,98651.44
2023-08-07T12:06:11.168Z,98651.38
2023-08-07T12:08:39.634Z,98648.09
2023-08-07T12:11:08.505Z,98652.88
2023-08-07T12:13:38.875Z,98654.59
2023-08-07T12:16:06.250Z,98655.94
2023-08-07T12:18:33.601Z,98650.88
2023-08-07T12:21:05.465Z,98651.22
2023-08-07T12:23:34.616Z,98638.91
2023-08-07T12:26:01.842Z,98638.84
2023-08-07T12:28:28.506Z,98635.56
2023-08-07T12:30:55.263Z,98631.63
2023-08-07T12:33:21.927Z,98636.47
2023-08-07T12:35:48.627Z,98635.75
2023-08-07T12:38:15.913Z,98640.47
2023-08-07T12:40:44.383Z,98642.69
2023-08-07T12:43:11.519Z,98645.59
2023-08-07T12:48:08.383Z,98642.88
2023-08-07T12:50:35.825Z,98644.97
2023-08-07T12:53:02.786Z,98643.22
2023-08-07T12:55:30.648Z,98651.78
2023-08-07T12:57:58.041Z,98645.66
2023-08-07T13:00:26.503Z,98646.34
2023-08-07T13:02:54.718Z,98653.03
2023-08-07T13:05:22.932Z,98659.53
2023-08-07T13:07:51.425Z,98667.09
2023-08-07T13:10:18.635Z,98663.69
2023-08-07T13:12:48.360Z,98676.03
2023-08-07T13:15:16.571Z,98680.25
2023-08-07T13:17:44.337Z,98671.41
2023-08-07T13:20:14.182Z,98670.91
2023-08-07T13:22:43.469Z,98666.53
2023-08-07T13:25:12.031Z,98666.84
2023-08-07T13:27:40.621Z,98666.63
2023-08-07T13:30:09.635Z,98672.63
2023-08-07T13:32:37.897Z,98670.66
2023-08-07T13:35:06.029Z,98679.19
2023-08-07T13:37:33.266Z,98677.81
2023-08-07T13:40:00.140Z,98681.34
2023-08-07T13:42:28.702Z,98683.84
2023-08-07T13:44:59.283Z,98695.88
2023-08-07T13:47:27.027Z,98708.16
2023-08-07T13:49:59.304Z,98713.22
2023-08-07T13:52:25.973Z,98712.75
2023-08-07T13:54:52.791Z,98716.50
2023-08-07T13:57:19.538Z,98717.38
2023-08-07T13:59:47.412Z,98728.19
2023-08-07T14:02:14.766Z,98741.00
2023-08-07T14:04:41.468Z,98748.50
2023-08-07T14:07:08.228Z,98753.44
2023-08-07T14:09:34.823Z,98763.28
2023-08-07T14:12:01.593Z,98772.47
2023-08-07T14:14:30.048Z,98783.66
2023-08-07T14:16:58.676Z,98787.22
2023-08-07T14:19:25.663Z,98790.44
2023-08-07T14:21:52.651Z,98782.63
2023-08-07T14:24:19.384Z,98790.69
2023-08-07T14:26:46.068Z,98792.84
2023-08-07T14:29:14.174Z,98779.75
2023-08-07T14:31:40.981Z,98782.69
2023-08-07T14:34:08.713Z,98797.50
2023-08-07T14:36:36.658Z,98797.91
2023-08-07T14:39:03.536Z,98796.44
2023-08-07T14:41:30.248Z,98799.13
2023-08-07T14:43:57.628Z,98784.44
2023-08-07T14:46:24.951Z,98790.09
2023-08-07T14:48:51.693Z,98792.31
2023-08-07T14:51:18.432Z,98795.41
2023-08-07T14:53:45.204Z,98784.81
2023-08-07T14:56:11.834Z,98795.22
2023-08-07T14:58:38.534Z,98788.81
2023-08-07T15:01:05.203Z,98786.03
2023-08-07T15:03:32.166Z,98792.00
2023-08-07T15:05:58.926Z,98793.03
2023-08-07T15:08:25.800Z,98796.84
2023-08-07T15:10:54.275Z,98802.94
2023-08-07T15:13:21.352Z,98810.31
2023-08-07T15:15:48.029Z,98811.00
2023-08-07T15:18:14.774Z,98816.84
2023-08-07T15:20:41.725Z,98813.72
2023-08-07T15:23:08.955Z,98814.84
2023-08-07T15:25:35.641Z,98810.88
2023-08-07T15:28:04.099Z,98812.16
2023-08-07T15:30:31.787Z,98806.63
2023-08-07T15:32:58.640Z,98795.88
2023-08-07T15:35:26.990Z,98805.84
2023-08-07T15:37:53.823Z,98802.13
2023-08-07T15:40:20.887Z,98816.16
2023-08-07T15:42:50.887Z,98802.38
2023-08-07T15:45:17.707Z,98810.53
2023-08-07T15:47:44.521Z,98813.50
2023-08-07T15:50:11.210Z,98809.97
2023-08-07T15:52:38.105Z,98825.94
2023-08-07T15:55:05.169Z,98826.59
2023-08-07T15:57:31.825Z,98851.06
2023-08-07T15:59:58.615Z,98859.28
2023-08-07T16:02:25.539Z,98864.84
2023-08-07T16:04:52.324Z,98860.69
2023-08-07T16:07:19.133Z,98871.16
2023-08-07T16:09:45.848Z,98865.28
2023-08-07T16:12:13.933Z,98870.38
2023-08-07T16:14:40.711Z,98869.16
2023-08-07T16:17:08.651Z,98877.63
2023-08-07T16:19:35.359Z,98883.63
2023-08-07T16:22:02.797Z,98884.84
2023-08-07T16:24:29.474Z,98879.13
2023-08-07T16:26:56.629Z,98885.16
2023-08-07T16:29:23.527Z,98894.03
2023-08-07T16:31:51.888Z,98884.13
2023-08-07T16:34:19.818Z,98893.56
2023-08-07T16:36:46.513Z,98894.19
2023-08-07T16:39:13.116Z,98899.75
2023-08-07T16:41:41.714Z,98896.38
2023-08-07T16:44:08.478Z,98896.06
2023-08-07T16:46:35.068Z,98897.78
2023-08-07T16:49:01.726Z,98894.38
2023-08-07T16:51:28.436Z,98897.94
2023-08-07T16:53:55.423Z,98898.41
2023-08-07T16:56:22.064Z,98911.38
2023-08-07T16:58:49.633Z,98906.13
2023-08-07T17:01:16.938Z,98919.41
2023-08-07T17:03:44.724Z,98915.41
2023-08-07T17:06:11.501Z,98920.34
2023-08-07T17:08:39.702Z,98928.53
2023-08-07T17:11:06.322Z,98934.25
2023-08-07T17:13:32.998Z,98944.94
2023-08-07T17:15:59.694Z,98931.16
2023-08-07T17:18:26.431Z,98928.19
2023-08-07T17:20:53.020Z,98928.03
2023-08-07T17:23:19.644Z,98929.41
2023-08-07T17:25:46.979Z,98922.47
2023-08-07T17:28:13.587Z,98938.09
2023-08-07T17:30:40.282Z,98929.28
2023-08-07T17:33:07.004Z,98939.78
2023-08-07T17:35:35.424Z,98933.44
2023-08-07T17:38:02.451Z,98935.59
2023-08-07T17:40:29.178Z,98936.81
2023-08-07T17:42:55.904Z,98945.78
2023-08-07T17:45:22.913Z,98944.53
2023-08-07T17:47:50.585Z,98956.06
2023-08-07T17:50:17.371Z,98962.25
2023-08-07T17:52:44.009Z,98956.22
2023-08-07T17:55:12.879Z,98956.75
2023-08-07T17:57:39.817Z,98971.72
2023-08-07T18:00:08.720Z,98965.22
2023-08-07T18:02:35.720Z,98967.25
2023-08-07T18:05:04.420Z,98969.19
2023-08-07T18:07:31.965Z,98970.28
2023-08-07T18:09:58.779Z,98963.78
2023-08-07T18:12:25.557Z,98973.41
2023-08-07T18:14:53.013Z,98970.91
2023-08-07T18:17:21.451Z,98974.91
2023-08-07T18:19:48.092Z,98977.09
2023-08-07T18:22:14.758Z,98979.72
2023-08-07T18:24:41.420Z,98985.16
2023-08-07T18:27:08.201Z,98989.75
2023-08-07T18:29:35.310Z,98990.50
2023-08-07T18:32:02.992Z,99001.88
2023-08-07T18:34:29.686Z,99007.38
2023-08-07T18:36:56.764Z,99002.38
2023-08-07T18:39:23.777Z,99012.72
2023-08-07T18:41:50.473Z,98997.69
2023-08-07T18:44:17.917Z,99009.88
2023-08-07T18:46:44.709Z,99013.56
2023-08-07T18:49:11.976Z,99015.53
2023-08-07T18:51:39.445Z,99022.34
2023-08-07T18:54:06.778Z,99018.72
2023-08-07T18:56:33.436Z,99027.66
2023-08-07T18:59:04.306Z,99031.38
2023-08-07T19:01:34.316Z,99032.91
2023-08-07T19:04:02.597Z,99040.59
2023-08-07T19:06:32.416Z,99045.19
2023-08-07T19:08:59.685Z,99048.41
2023-08-07T19:11:28.652Z,99049.31
2023-08-07T19:13:56.940Z,99053.47
2023-08-07T19:16:24.617Z,99052.53
2023-08-07T19:18:51.297Z,99048.66
2023-08-07T19:21:18.372Z,99050.00
2023-08-07T19:23:45.073Z,99053.13
2023-08-07T19:26:11.783Z,99052.03
2023-08-07T19:28:40.973Z,99050.38
2023-08-07T19:31:10.532Z,99056.50
2023-08-07T19:33:37.263Z,99052.03
2023-08-07T19:36:04.118Z,99061.75
2023-08-07T19:38:30.774Z,99053.88
2023-08-07T19:40:57.584Z,99055.44
2023-08-07T19:43:24.421Z,99064.09
2023-08-07T19:45:52.013Z,99075.34
2023-08-07T19:48:18.904Z,99072.44
2023-08-07T19:50:45.685Z,99071.06
2023-08-07T19:53:12.404Z,99062.91
2023-08-07T19:55:39.143Z,99068.31
2023-08-07T19:58:05.953Z,99072.09
2023-08-07T20:00:32.785Z,99072.25
2023-08-07T20:03:00.204Z,99066.72
2023-08-07T20:05:27.484Z,99063.31
2023-08-07T20:07:54.810Z,99073.25
2023-08-07T20:10:24.654Z,99076.66
2023-08-07T20:12:52.392Z,99080.34
2023-08-07T20:15:21.011Z,99085.00
2023-08-07T20:17:49.896Z,99080.22
2023-08-07T20:20:21.162Z,99085.47
2023-08-07T20:22:48.479Z,99081.00
2023-08-07T20:25:15.182Z,99087.03
2023-08-07T20:27:41.941Z,99085.47
2023-08-07T20:30:08.957Z,99089.06
2023-08-07T20:32:35.652Z,99094.84
2023-08-07T20:35:02.315Z,99104.25
2023-08-07T20:37:29.023Z,99106.41
2023-08-07T20:39:56.602Z,99100.09
2023-08-07T20:42:23.238Z,99101.34
2023-08-07T20:44:50.092Z,99108.91
2023-08-07T20:47:16.836Z,99108.78
2023-08-07T20:49:43.496Z,99114.63
2023-08-07T20:52:10.201Z,99115.72
2023-08-07T20:54:37.019Z,99117.56
2023-08-07T20:57:04.066Z,99114.94
2023-08-07T20:59:31.014Z,99117.09
2023-08-07T21:01:57.913Z,99109.81
2023-08-07T21:04:26.908Z,99113.22
2023-08-07T21:06:54.124Z,99117.50
2023-08-07T21:09:21.557Z,99119.66
2023-08-07T21:11:48.224Z,99123.03
2023-08-07T21:14:15.220Z,99123.81
2023-08-07T21:16:45.157Z,99130.63
2023-08-07T21:19:12.951Z,99130.03
2023-08-07T21:21:40.056Z,99128.47
2023-08-07T21:24:13.121Z,99128.94
2023-08-07T21:26:41.523Z,99127.88
2023-08-07T21:29:08.492Z,99119.72
2023-08-07T21:31:35.701Z,99123.69
2023-08-07T21:34:03.169Z,99126.31
2023-08-07T21:36:29.790Z,99126.03
2023-08-07T21:38:58.688Z,99132.06
2023-08-07T21:41:25.571Z,99130.19
2023-08-07T21:43:52.292Z,99121.25
2023-08-07T21:46:20.535Z,99128.94
2023-08-07T21:48:47.992Z,99122.16
2023-08-07T21:51:14.695Z,99125.84
2023-08-07T21:53:41.389Z,99118.94
2023-08-07T21:56:07.961Z,99134.09
2023-08-07T21:58:34.597Z,99132.72
2023-08-07T22:01:02.102Z,99133.50
2023-08-07T22:03:28.730Z,99133.00
2023-08-07T22:05:55.380Z,99133.59
2023-08-07T22:08:22.043Z,99135.56
2023-08-07T22:10:48.699Z,99138.91
2023-08-07T22:13:15.253Z,99139.78
2023-08-07T22:15:42.012Z,99136.78
2023-08-07T22:18:08.629Z,99138.34
2023-08-07T22:20:35.304Z,99138.19
2023-08-07T22:23:01.947Z,99148.97
2023-08-07T22:25:28.541Z,99147.72
2023-08-07T22:27:55.236Z,99148.59
2023-08-07T22:30:22.501Z,99143.06
2023-08-07T22:32:51.342Z,99143.81
2023-08-07T22:35:18.882Z,99139.53
2023-08-07T22:37:45.541Z,99142.66
2023-08-07T22:40:12.658Z,99140.91
2023-08-07T22:42:39.406Z,99140.25
2023-08-07T22:45:06.305Z,99134.03
2023-08-07T22:47:32.980Z,99135.09
2023-08-07T22:49:59.606Z,99149.09
2023-08-07T22:52:26.249Z,99138.13
2023-08-07T22:54:52.907Z,99132.19
2023-08-07T22:57:19.505Z,99135.72
2023-08-07T22:59:46.180Z,99133.19
2023-08-07T23:02:12.771Z,99138.13
2023-08-07T23:04:39.401Z,99133.47
2023-08-07T23:07:06.063Z,99131.16
2023-08-07T23:09:32.634Z,99136.97
2023-08-07T23:11:59.653Z,99138.25
2023-08-07T23:14:26.444Z,99137.16
2023-08-07T23:16:53.183Z,99140.75
2023-08-07T23:19:19.815Z,99140.47
2023-08-07T23:21:46.424Z,99145.59
2023-08-07T23:24:13.001Z,99144.06
2023-08-07T23:26:40.789Z,99144.53
2023-08-07T23:29:07.402Z,99134.53
2023-08-07T23:31:34.100Z,99143.47
2023-08-07T23:34:00.866Z,99134.94
2023-08-07T23:36:27.496Z,99132.41
2023-08-07T23:38:54.520Z,99132.03
2023-08-07T23:41:21.256Z,99135.03
2023-08-07T23:43:48.174Z,99130.78
2023-08-07T23:46:14.870Z,99131.53
2023-08-07T23:48:41.657Z,99136.31
2023-08-07T23:51:08.297Z,99140.56
2023-08-07T23:53:34.949Z,99141.22
2023-08-07T23:56:01.676Z,99136.75
2023-08-07T23:58:28.391Z,99141.50
